sensor_id;sensor_type;location;lat;lon;timestamp;P1;durP1;ratioP1;P2;durP2;ratioP2
19436;SDS011;9854;50.968;4.168;2023-02-28T00:00:18;9.27;;;7.50;;
19436;SDS011;9854;50.968;4.168;2023-02-28T00:02:44;10.60;;;7.33;;
19436;SDS011;9854;50.968;4.168;2023-02-28T00:05:11;9.43;;;7.47;;
19436;SDS011;9854;50.968;4.168;2023-02-28T00:07:38;10.67;;;7.53;;
19436;SDS011;9854;50.968;4.168;2023-02-28T00:10:05;9.30;;;7.00;;
19436;SDS011;9854;50.968;4.168;2023-02-28T00:12:32;8.30;;;7.43;;
19436;SDS011;9854;50.968;4.168;2023-02-28T00:14:59;12.47;;;7.47;;
19436;SDS011;9854;50.968;4.168;2023-02-28T00:17:25;14.33;;;7.23;;
19436;SDS011;9854;50.968;4.168;2023-02-28T00:19:50;10.70;;;7.60;;
19436;SDS011;9854;50.968;4.168;2023-02-28T00:22:17;11.60;;;7.10;;
19436;SDS011;9854;50.968;4.168;2023-02-28T00:24:44;8.00;;;7.03;;
19436;SDS011;9854;50.968;4.168;2023-02-28T00:27:10;8.23;;;7.20;;
19436;SDS011;9854;50.968;4.168;2023-02-28T00:29:36;14.63;;;7.73;;
19436;SDS011;9854;50.968;4.168;2023-02-28T00:32:02;12.20;;;7.87;;
19436;SDS011;9854;50.968;4.168;2023-02-28T00:34:28;8.67;;;7.20;;
19436;SDS011;9854;50.968;4.168;2023-02-28T00:36:54;10.63;;;7.63;;
19436;SDS011;9854;50.968;4.168;2023-02-28T00:39:20;12.83;;;7.07;;
19436;SDS011;9854;50.968;4.168;2023-02-28T00:41:46;13.80;;;7.70;;
19436;SDS011;9854;50.968;4.168;2023-02-28T00:44:11;8.57;;;7.77;;
19436;SDS011;9854;50.968;4.168;2023-02-28T00:46:37;14.87;;;8.10;;
19436;SDS011;9854;50.968;4.168;2023-02-28T00:49:03;8.27;;;7.47;;
19436;SDS011;9854;50.968;4.168;2023-02-28T00:51:28;18.67;;;9.57;;
19436;SDS011;9854;50.968;4.168;2023-02-28T00:53:54;14.40;;;7.80;;
19436;SDS011;9854;50.968;4.168;2023-02-28T00:56:20;10.43;;;8.27;;
19436;SDS011;9854;50.968;4.168;2023-02-28T00:58:46;12.20;;;8.67;;
19436;SDS011;9854;50.968;4.168;2023-02-28T01:01:11;16.53;;;8.27;;
19436;SDS011;9854;50.968;4.168;2023-02-28T01:03:37;12.93;;;8.67;;
19436;SDS011;9854;50.968;4.168;2023-02-28T01:06:03;13.93;;;8.50;;
19436;SDS011;9854;50.968;4.168;2023-02-28T01:08:29;13.00;;;9.00;;
19436;SDS011;9854;50.968;4.168;2023-02-28T01:10:55;17.07;;;9.50;;
19436;SDS011;9854;50.968;4.168;2023-02-28T01:13:21;11.40;;;8.63;;
19436;SDS011;9854;50.968;4.168;2023-02-28T01:15:52;15.53;;;9.10;;
19436;SDS011;9854;50.968;4.168;2023-02-28T01:18:20;17.23;;;8.80;;
19436;SDS011;9854;50.968;4.168;2023-02-28T01:21:02;12.83;;;8.80;;
19436;SDS011;9854;50.968;4.168;2023-02-28T01:23:37;10.00;;;8.43;;
19436;SDS011;9854;50.968;4.168;2023-02-28T01:26:06;13.37;;;9.03;;
19436;SDS011;9854;50.968;4.168;2023-02-28T01:28:33;13.10;;;8.57;;
19436;SDS011;9854;50.968;4.168;2023-02-28T01:30:59;17.47;;;9.53;;
19436;SDS011;9854;50.968;4.168;2023-02-28T01:33:25;9.60;;;8.60;;
19436;SDS011;9854;50.968;4.168;2023-02-28T01:35:57;15.10;;;9.00;;
19436;SDS011;9854;50.968;4.168;2023-02-28T01:38:30;13.73;;;8.80;;
19436;SDS011;9854;50.968;4.168;2023-02-28T01:40:56;10.90;;;8.83;;
19436;SDS011;9854;50.968;4.168;2023-02-28T01:43:26;14.20;;;9.07;;
19436;SDS011;9854;50.968;4.168;2023-02-28T01:46:13;10.00;;;8.77;;
19436;SDS011;9854;50.968;4.168;2023-02-28T01:48:43;12.60;;;8.10;;
19436;SDS011;9854;50.968;4.168;2023-02-28T01:51:15;13.73;;;8.83;;
19436;SDS011;9854;50.968;4.168;2023-02-28T01:53:49;12.13;;;9.07;;
19436;SDS011;9854;50.968;4.168;2023-02-28T01:56:20;14.00;;;9.30;;
19436;SDS011;9854;50.968;4.168;2023-02-28T01:58:53;10.50;;;9.03;;
19436;SDS011;9854;50.968;4.168;2023-02-28T02:01:20;12.47;;;9.23;;
19436;SDS011;9854;50.968;4.168;2023-02-28T02:03:54;13.47;;;8.67;;
19436;SDS011;9854;50.968;4.168;2023-02-28T02:06:23;10.27;;;8.17;;
19436;SDS011;9854;50.968;4.168;2023-02-28T02:08:52;12.10;;;8.30;;
19436;SDS011;9854;50.968;4.168;2023-02-28T02:11:19;12.33;;;8.33;;
19436;SDS011;9854;50.968;4.168;2023-02-28T02:19:28;11.83;;;8.57;;
19436;SDS011;9854;50.968;4.168;2023-02-28T02:36:00;12.27;;;8.87;;
19436;SDS011;9854;50.968;4.168;2023-02-28T02:38:48;12.57;;;8.63;;
19436;SDS011;9854;50.968;4.168;2023-02-28T02:41:19;14.10;;;9.27;;
19436;SDS011;9854;50.968;4.168;2023-02-28T02:44:15;17.77;;;8.77;;
19436;SDS011;9854;50.968;4.168;2023-02-28T02:46:45;10.03;;;8.90;;
19436;SDS011;9854;50.968;4.168;2023-02-28T02:49:19;16.50;;;9.83;;
19436;SDS011;9854;50.968;4.168;2023-02-28T02:51:52;10.83;;;9.43;;
19436;SDS011;9854;50.968;4.168;2023-02-28T02:54:30;10.80;;;9.70;;
19436;SDS011;9854;50.968;4.168;2023-02-28T02:57:01;13.87;;;9.83;;
19436;SDS011;9854;50.968;4.168;2023-02-28T02:59:32;11.00;;;9.83;;
19436;SDS011;9854;50.968;4.168;2023-02-28T03:02:01;10.87;;;9.77;;
19436;SDS011;9854;50.968;4.168;2023-02-28T03:04:34;13.27;;;9.53;;
19436;SDS011;9854;50.968;4.168;2023-02-28T03:07:04;11.73;;;9.13;;
19436;SDS011;9854;50.968;4.168;2023-02-28T03:09:32;12.93;;;10.47;;
19436;SDS011;9854;50.968;4.168;2023-02-28T03:11:59;9.93;;;9.03;;
19436;SDS011;9854;50.968;4.168;2023-02-28T03:20:02;15.13;;;9.80;;
19436;SDS011;9854;50.968;4.168;2023-02-28T03:22:40;19.50;;;9.70;;
19436;SDS011;9854;50.968;4.168;2023-02-28T03:30:48;16.80;;;10.20;;
19436;SDS011;9854;50.968;4.168;2023-02-28T03:33:21;12.90;;;10.07;;
19436;SDS011;9854;50.968;4.168;2023-02-28T03:35:53;12.27;;;10.10;;
19436;SDS011;9854;50.968;4.168;2023-02-28T03:40:56;18.80;;;10.27;;
19436;SDS011;9854;50.968;4.168;2023-02-28T03:43:28;16.43;;;11.20;;
19436;SDS011;9854;50.968;4.168;2023-02-28T03:45:57;15.10;;;9.93;;
19436;SDS011;9854;50.968;4.168;2023-02-28T03:48:38;11.57;;;9.87;;
19436;SDS011;9854;50.968;4.168;2023-02-28T03:51:12;11.63;;;9.93;;
19436;SDS011;9854;50.968;4.168;2023-02-28T03:53:43;14.37;;;9.83;;
19436;SDS011;9854;50.968;4.168;2023-02-28T04:01:38;11.53;;;10.23;;
19436;SDS011;9854;50.968;4.168;2023-02-28T04:04:07;13.47;;;9.30;;
19436;SDS011;9854;50.968;4.168;2023-02-28T04:06:34;16.67;;;10.53;;
19436;SDS011;9854;50.968;4.168;2023-02-28T04:09:01;14.33;;;10.37;;
19436;SDS011;9854;50.968;4.168;2023-02-28T04:14:01;11.87;;;9.57;;
19436;SDS011;9854;50.968;4.168;2023-02-28T04:16:29;15.80;;;9.87;;
19436;SDS011;9854;50.968;4.168;2023-02-28T04:18:55;12.20;;;10.83;;
19436;SDS011;9854;50.968;4.168;2023-02-28T04:21:27;16.95;;;11.10;;
19436;SDS011;9854;50.968;4.168;2023-02-28T04:23:53;11.37;;;10.20;;
19436;SDS011;9854;50.968;4.168;2023-02-28T04:26:20;16.63;;;11.00;;
19436;SDS011;9854;50.968;4.168;2023-02-28T04:28:45;18.23;;;10.47;;
19436;SDS011;9854;50.968;4.168;2023-02-28T04:31:11;14.83;;;10.63;;
19436;SDS011;9854;50.968;4.168;2023-02-28T04:33:36;16.57;;;10.53;;
19436;SDS011;9854;50.968;4.168;2023-02-28T04:36:03;19.93;;;10.70;;
19436;SDS011;9854;50.968;4.168;2023-02-28T04:38:32;16.15;;;12.27;;
19436;SDS011;9854;50.968;4.168;2023-02-28T04:40:59;15.43;;;11.63;;
19436;SDS011;9854;50.968;4.168;2023-02-28T04:43:25;17.33;;;11.33;;
19436;SDS011;9854;50.968;4.168;2023-02-28T04:45:52;16.40;;;12.63;;
19436;SDS011;9854;50.968;4.168;2023-02-28T04:48:19;14.20;;;10.97;;
19436;SDS011;9854;50.968;4.168;2023-02-28T04:50:45;13.57;;;11.30;;
19436;SDS011;9854;50.968;4.168;2023-02-28T04:53:10;16.25;;;11.40;;
19436;SDS011;9854;50.968;4.168;2023-02-28T04:55:36;16.83;;;11.00;;
19436;SDS011;9854;50.968;4.168;2023-02-28T04:58:05;11.73;;;10.53;;
19436;SDS011;9854;50.968;4.168;2023-02-28T05:00:30;15.10;;;10.93;;
19436;SDS011;9854;50.968;4.168;2023-02-28T05:02:56;11.43;;;10.43;;
19436;SDS011;9854;50.968;4.168;2023-02-28T05:05:21;12.77;;;10.53;;
19436;SDS011;9854;50.968;4.168;2023-02-28T05:07:47;22.60;;;11.60;;
19436;SDS011;9854;50.968;4.168;2023-02-28T05:10:13;13.17;;;11.37;;
19436;SDS011;9854;50.968;4.168;2023-02-28T05:12:38;16.13;;;12.32;;
19436;SDS011;9854;50.968;4.168;2023-02-28T05:15:04;20.13;;;12.20;;
19436;SDS011;9854;50.968;4.168;2023-02-28T05:17:30;14.13;;;11.13;;
19436;SDS011;9854;50.968;4.168;2023-02-28T05:19:56;15.50;;;11.07;;
19436;SDS011;9854;50.968;4.168;2023-02-28T05:22:22;13.40;;;10.73;;
19436;SDS011;9854;50.968;4.168;2023-02-28T05:24:47;15.10;;;11.00;;
19436;SDS011;9854;50.968;4.168;2023-02-28T05:27:13;15.93;;;11.07;;
19436;SDS011;9854;50.968;4.168;2023-02-28T05:29:38;19.57;;;12.83;;
19436;SDS011;9854;50.968;4.168;2023-02-28T05:32:11;16.97;;;11.10;;
19436;SDS011;9854;50.968;4.168;2023-02-28T05:34:38;13.47;;;10.57;;
19436;SDS011;9854;50.968;4.168;2023-02-28T05:37:04;19.63;;;11.33;;
19436;SDS011;9854;50.968;4.168;2023-02-28T05:39:30;19.20;;;11.13;;
19436;SDS011;9854;50.968;4.168;2023-02-28T05:41:56;16.47;;;12.30;;
19436;SDS011;9854;50.968;4.168;2023-02-28T05:44:22;17.60;;;12.30;;
19436;SDS011;9854;50.968;4.168;2023-02-28T05:46:47;14.07;;;11.98;;
19436;SDS011;9854;50.968;4.168;2023-02-28T05:49:13;15.13;;;11.17;;
19436;SDS011;9854;50.968;4.168;2023-02-28T05:51:38;19.30;;;11.20;;
19436;SDS011;9854;50.968;4.168;2023-02-28T05:54:05;13.93;;;11.60;;
19436;SDS011;9854;50.968;4.168;2023-02-28T05:56:31;14.17;;;11.17;;
19436;SDS011;9854;50.968;4.168;2023-02-28T05:58:57;17.20;;;11.07;;
19436;SDS011;9854;50.968;4.168;2023-02-28T06:01:36;14.43;;;10.23;;
19436;SDS011;9854;50.968;4.168;2023-02-28T06:04:03;20.53;;;11.13;;
19436;SDS011;9854;50.968;4.168;2023-02-28T06:06:30;15.43;;;11.20;;
19436;SDS011;9854;50.968;4.168;2023-02-28T06:08:59;21.53;;;10.83;;
19436;SDS011;9854;50.968;4.168;2023-02-28T06:11:25;13.60;;;10.47;;
19436;SDS011;9854;50.968;4.168;2023-02-28T06:13:58;16.30;;;10.63;;
19436;SDS011;9854;50.968;4.168;2023-02-28T06:16:26;13.57;;;10.57;;
19436;SDS011;9854;50.968;4.168;2023-02-28T06:18:52;13.00;;;10.37;;
19436;SDS011;9854;50.968;4.168;2023-02-28T06:21:21;17.03;;;10.57;;
19436;SDS011;9854;50.968;4.168;2023-02-28T06:23:47;18.70;;;11.43;;
19436;SDS011;9854;50.968;4.168;2023-02-28T06:26:13;13.00;;;10.93;;
19436;SDS011;9854;50.968;4.168;2023-02-28T06:28:39;18.93;;;11.23;;
19436;SDS011;9854;50.968;4.168;2023-02-28T06:31:06;15.17;;;10.03;;
19436;SDS011;9854;50.968;4.168;2023-02-28T06:33:32;12.80;;;11.10;;
19436;SDS011;9854;50.968;4.168;2023-02-28T06:35:58;13.13;;;10.57;;
19436;SDS011;9854;50.968;4.168;2023-02-28T06:38:24;15.13;;;10.03;;
19436;SDS011;9854;50.968;4.168;2023-02-28T06:40:53;13.53;;;10.17;;
19436;SDS011;9854;50.968;4.168;2023-02-28T06:43:19;18.63;;;10.10;;
19436;SDS011;9854;50.968;4.168;2023-02-28T06:45:45;17.10;;;10.30;;
19436;SDS011;9854;50.968;4.168;2023-02-28T06:48:11;17.67;;;10.60;;
19436;SDS011;9854;50.968;4.168;2023-02-28T06:50:37;14.23;;;10.17;;
19436;SDS011;9854;50.968;4.168;2023-02-28T06:53:03;18.17;;;10.23;;
19436;SDS011;9854;50.968;4.168;2023-02-28T06:55:29;18.70;;;10.27;;
19436;SDS011;9854;50.968;4.168;2023-02-28T06:57:54;12.37;;;9.83;;
19436;SDS011;9854;50.968;4.168;2023-02-28T07:00:20;16.23;;;9.87;;
19436;SDS011;9854;50.968;4.168;2023-02-28T07:02:46;12.23;;;9.47;;
19436;SDS011;9854;50.968;4.168;2023-02-28T07:05:12;18.00;;;9.57;;
19436;SDS011;9854;50.968;4.168;2023-02-28T07:07:38;11.43;;;9.20;;
19436;SDS011;9854;50.968;4.168;2023-02-28T07:10:08;10.93;;;9.67;;
19436;SDS011;9854;50.968;4.168;2023-02-28T07:12:37;13.47;;;9.90;;
19436;SDS011;9854;50.968;4.168;2023-02-28T07:15:04;15.30;;;9.37;;
19436;SDS011;9854;50.968;4.168;2023-02-28T07:17:30;12.17;;;8.83;;
19436;SDS011;9854;50.968;4.168;2023-02-28T07:19:56;15.40;;;10.43;;
19436;SDS011;9854;50.968;4.168;2023-02-28T07:22:21;15.33;;;9.77;;
19436;SDS011;9854;50.968;4.168;2023-02-28T07:24:47;21.30;;;9.93;;
19436;SDS011;9854;50.968;4.168;2023-02-28T07:27:13;15.63;;;9.57;;
19436;SDS011;9854;50.968;4.168;2023-02-28T07:29:48;12.87;;;9.77;;
19436;SDS011;9854;50.968;4.168;2023-02-28T07:32:15;14.07;;;10.13;;
19436;SDS011;9854;50.968;4.168;2023-02-28T07:34:40;12.17;;;9.60;;
19436;SDS011;9854;50.968;4.168;2023-02-28T07:37:06;11.17;;;9.57;;
19436;SDS011;9854;50.968;4.168;2023-02-28T07:39:32;16.73;;;9.73;;
19436;SDS011;9854;50.968;4.168;2023-02-28T07:41:57;18.93;;;10.10;;
19436;SDS011;9854;50.968;4.168;2023-02-28T07:44:24;10.67;;;9.47;;
19436;SDS011;9854;50.968;4.168;2023-02-28T07:46:51;19.47;;;10.03;;
19436;SDS011;9854;50.968;4.168;2023-02-28T07:49:17;12.70;;;10.00;;
19436;SDS011;9854;50.968;4.168;2023-02-28T07:51:43;16.50;;;9.70;;
19436;SDS011;9854;50.968;4.168;2023-02-28T07:54:09;14.33;;;9.33;;
19436;SDS011;9854;50.968;4.168;2023-02-28T07:56:34;11.03;;;9.07;;
19436;SDS011;9854;50.968;4.168;2023-02-28T07:59:00;10.30;;;9.13;;
19436;SDS011;9854;50.968;4.168;2023-02-28T08:01:26;9.93;;;8.73;;
19436;SDS011;9854;50.968;4.168;2023-02-28T08:03:52;15.23;;;10.23;;
19436;SDS011;9854;50.968;4.168;2023-02-28T08:06:20;10.63;;;8.80;;
19436;SDS011;9854;50.968;4.168;2023-02-28T08:08:47;13.53;;;8.90;;
19436;SDS011;9854;50.968;4.168;2023-02-28T08:11:14;16.67;;;8.90;;
19436;SDS011;9854;50.968;4.168;2023-02-28T08:13:41;13.00;;;8.50;;
19436;SDS011;9854;50.968;4.168;2023-02-28T08:16:10;9.30;;;8.33;;
19436;SDS011;9854;50.968;4.168;2023-02-28T08:18:40;10.97;;;7.87;;
19436;SDS011;9854;50.968;4.168;2023-02-28T08:21:09;11.57;;;7.27;;
19436;SDS011;9854;50.968;4.168;2023-02-28T08:23:35;11.00;;;7.80;;
19436;SDS011;9854;50.968;4.168;2023-02-28T08:26:02;9.47;;;7.97;;
19436;SDS011;9854;50.968;4.168;2023-02-28T08:28:28;9.10;;;6.77;;
19436;SDS011;9854;50.968;4.168;2023-02-28T08:30:54;7.80;;;6.90;;
19436;SDS011;9854;50.968;4.168;2023-02-28T08:33:19;7.70;;;6.57;;
19436;SDS011;9854;50.968;4.168;2023-02-28T08:35:45;8.73;;;7.47;;
19436;SDS011;9854;50.968;4.168;2023-02-28T08:38:11;8.47;;;6.73;;
19436;SDS011;9854;50.968;4.168;2023-02-28T08:40:37;6.83;;;6.17;;
19436;SDS011;9854;50.968;4.168;2023-02-28T08:43:02;8.97;;;6.70;;
19436;SDS011;9854;50.968;4.168;2023-02-28T08:45:28;9.87;;;5.77;;
19436;SDS011;9854;50.968;4.168;2023-02-28T08:47:54;9.17;;;6.53;;
19436;SDS011;9854;50.968;4.168;2023-02-28T08:50:20;10.37;;;6.10;;
19436;SDS011;9854;50.968;4.168;2023-02-28T08:52:46;6.27;;;5.67;;
19436;SDS011;9854;50.968;4.168;2023-02-28T08:55:12;7.13;;;5.87;;
19436;SDS011;9854;50.968;4.168;2023-02-28T08:57:38;7.93;;;5.00;;
19436;SDS011;9854;50.968;4.168;2023-02-28T09:00:04;10.37;;;5.30;;
19436;SDS011;9854;50.968;4.168;2023-02-28T09:02:30;5.83;;;4.90;;
19436;SDS011;9854;50.968;4.168;2023-02-28T09:04:56;7.03;;;5.03;;
19436;SDS011;9854;50.968;4.168;2023-02-28T09:07:23;6.87;;;4.53;;
19436;SDS011;9854;50.968;4.168;2023-02-28T09:09:48;7.87;;;4.70;;
19436;SDS011;9854;50.968;4.168;2023-02-28T09:12:21;4.07;;;3.73;;
19436;SDS011;9854;50.968;4.168;2023-02-28T09:14:51;7.20;;;3.73;;
19436;SDS011;9854;50.968;4.168;2023-02-28T09:17:17;4.53;;;3.73;;
19436;SDS011;9854;50.968;4.168;2023-02-28T09:19:43;3.87;;;3.53;;
19436;SDS011;9854;50.968;4.168;2023-02-28T09:22:09;8.33;;;3.60;;
19436;SDS011;9854;50.968;4.168;2023-02-28T09:24:36;7.90;;;3.90;;
19436;SDS011;9854;50.968;4.168;2023-02-28T09:27:02;5.83;;;4.13;;
19436;SDS011;9854;50.968;4.168;2023-02-28T09:29:28;4.90;;;3.90;;
19436;SDS011;9854;50.968;4.168;2023-02-28T09:31:55;6.57;;;4.13;;
19436;SDS011;9854;50.968;4.168;2023-02-28T09:34:23;4.07;;;3.70;;
19436;SDS011;9854;50.968;4.168;2023-02-28T09:36:49;3.93;;;3.60;;
19436;SDS011;9854;50.968;4.168;2023-02-28T09:39:19;4.03;;;3.67;;
19436;SDS011;9854;50.968;4.168;2023-02-28T09:41:47;7.57;;;3.93;;
19436;SDS011;9854;50.968;4.168;2023-02-28T09:46:54;5.17;;;3.50;;
19436;SDS011;9854;50.968;4.168;2023-02-28T09:49:45;3.77;;;3.47;;
19436;SDS011;9854;50.968;4.168;2023-02-28T09:52:20;2.83;;;2.63;;
19436;SDS011;9854;50.968;4.168;2023-02-28T09:54:49;2.83;;;2.57;;
19436;SDS011;9854;50.968;4.168;2023-02-28T09:57:17;2.67;;;2.40;;
19436;SDS011;9854;50.968;4.168;2023-02-28T09:59:49;4.73;;;2.40;;
19436;SDS011;9854;50.968;4.168;2023-02-28T10:05:33;2.77;;;2.57;;
19436;SDS011;9854;50.968;4.168;2023-02-28T10:08:25;2.97;;;2.50;;
19436;SDS011;9854;50.968;4.168;2023-02-28T10:11:07;5.17;;;2.97;;
19436;SDS011;9854;50.968;4.168;2023-02-28T10:16:41;2.63;;;2.40;;
19436;SDS011;9854;50.968;4.168;2023-02-28T10:19:20;5.93;;;2.50;;
19436;SDS011;9854;50.968;4.168;2023-02-28T10:22:05;3.07;;;2.37;;
19436;SDS011;9854;50.968;4.168;2023-02-28T10:24:43;4.93;;;2.13;;
19436;SDS011;9854;50.968;4.168;2023-02-28T10:27:13;5.27;;;2.93;;
19436;SDS011;9854;50.968;4.168;2023-02-28T10:29:40;3.23;;;2.73;;
19436;SDS011;9854;50.968;4.168;2023-02-28T10:32:10;4.03;;;2.60;;
19436;SDS011;9854;50.968;4.168;2023-02-28T10:34:40;3.67;;;2.40;;
19436;SDS011;9854;50.968;4.168;2023-02-28T10:37:06;3.93;;;2.40;;
19436;SDS011;9854;50.968;4.168;2023-02-28T10:39:40;2.67;;;2.20;;
19436;SDS011;9854;50.968;4.168;2023-02-28T10:42:18;3.60;;;2.37;;
19436;SDS011;9854;50.968;4.168;2023-02-28T10:44:46;4.80;;;2.27;;
19436;SDS011;9854;50.968;4.168;2023-02-28T10:47:16;3.00;;;2.70;;
19436;SDS011;9854;50.968;4.168;2023-02-28T10:49:50;2.70;;;2.40;;
19436;SDS011;9854;50.968;4.168;2023-02-28T10:52:36;3.77;;;3.10;;
19436;SDS011;9854;50.968;4.168;2023-02-28T10:57:59;3.27;;;2.90;;
19436;SDS011;9854;50.968;4.168;2023-02-28T11:00:25;5.13;;;2.90;;
19436;SDS011;9854;50.968;4.168;2023-02-28T11:02:58;3.57;;;2.90;;
19436;SDS011;9854;50.968;4.168;2023-02-28T11:05:31;2.70;;;2.50;;
19436;SDS011;9854;50.968;4.168;2023-02-28T11:08:19;3.93;;;2.40;;
19436;SDS011;9854;50.968;4.168;2023-02-28T11:11:27;3.77;;;3.37;;
19436;SDS011;9854;50.968;4.168;2023-02-28T11:13:34;3.10;;;2.67;;
19436;SDS011;9854;50.968;4.168;2023-02-28T11:16:04;2.97;;;2.77;;
19436;SDS011;9854;50.968;4.168;2023-02-28T11:21:11;2.57;;;2.37;;
19436;SDS011;9854;50.968;4.168;2023-02-28T11:26:55;3.33;;;2.33;;
19436;SDS011;9854;50.968;4.168;2023-02-28T11:29:26;3.97;;;2.40;;
19436;SDS011;9854;50.968;4.168;2023-02-28T11:34:43;3.13;;;2.40;;
19436;SDS011;9854;50.968;4.168;2023-02-28T11:37:11;3.80;;;2.03;;
19436;SDS011;9854;50.968;4.168;2023-02-28T11:39:39;2.30;;;2.10;;
19436;SDS011;9854;50.968;4.168;2023-02-28T11:47:47;5.03;;;2.33;;
19436;SDS011;9854;50.968;4.168;2023-02-28T11:50:38;4.57;;;2.43;;
19436;SDS011;9854;50.968;4.168;2023-02-28T11:55:53;2.50;;;2.20;;
19436;SDS011;9854;50.968;4.168;2023-02-28T11:58:44;4.47;;;3.10;;
19436;SDS011;9854;50.968;4.168;2023-02-28T12:15:43;2.53;;;2.33;;
19436;SDS011;9854;50.968;4.168;2023-02-28T12:24:01;4.03;;;2.50;;
19436;SDS011;9854;50.968;4.168;2023-02-28T12:26:43;5.70;;;3.00;;
19436;SDS011;9854;50.968;4.168;2023-02-28T12:29:19;3.47;;;2.40;;
19436;SDS011;9854;50.968;4.168;2023-02-28T12:31:53;4.77;;;2.10;;
19436;SDS011;9854;50.968;4.168;2023-02-28T12:34:28;2.63;;;2.42;;
19436;SDS011;9854;50.968;4.168;2023-02-28T12:36:58;4.30;;;2.33;;
19436;SDS011;9854;50.968;4.168;2023-02-28T12:39:35;5.70;;;2.65;;
19436;SDS011;9854;50.968;4.168;2023-02-28T12:42:26;3.63;;;2.55;;
19436;SDS011;9854;50.968;4.168;2023-02-28T12:44:59;2.43;;;2.23;;
19436;SDS011;9854;50.968;4.168;2023-02-28T12:47:29;5.53;;;2.20;;
19436;SDS011;9854;50.968;4.168;2023-02-28T12:50:00;3.13;;;2.83;;
19436;SDS011;9854;50.968;4.168;2023-02-28T13:00:29;2.55;;;2.20;;
19436;SDS011;9854;50.968;4.168;2023-02-28T13:06:10;5.13;;;2.50;;
19436;SDS011;9854;50.968;4.168;2023-02-28T13:09:12;4.07;;;2.00;;
19436;SDS011;9854;50.968;4.168;2023-02-28T13:11:44;4.68;;;2.20;;
19436;SDS011;9854;50.968;4.168;2023-02-28T13:17:11;2.30;;;2.10;;
19436;SDS011;9854;50.968;4.168;2023-02-28T13:19:43;2.70;;;2.35;;
19436;SDS011;9854;50.968;4.168;2023-02-28T13:22:20;2.63;;;2.40;;
19436;SDS011;9854;50.968;4.168;2023-02-28T13:25:03;5.03;;;2.95;;
19436;SDS011;9854;50.968;4.168;2023-02-28T13:27:48;5.07;;;2.42;;
19436;SDS011;9854;50.968;4.168;2023-02-28T13:33:22;5.38;;;2.65;;
19436;SDS011;9854;50.968;4.168;2023-02-28T13:38:42;2.70;;;2.30;;
19436;SDS011;9854;50.968;4.168;2023-02-28T13:46:27;3.90;;;2.30;;
19436;SDS011;9854;50.968;4.168;2023-02-28T13:48:53;2.78;;;2.50;;
19436;SDS011;9854;50.968;4.168;2023-02-28T13:51:37;4.50;;;2.42;;
19436;SDS011;9854;50.968;4.168;2023-02-28T14:05:41;3.00;;;2.70;;
19436;SDS011;9854;50.968;4.168;2023-02-28T14:10:38;8.05;;;2.92;;
19436;SDS011;9854;50.968;4.168;2023-02-28T14:13:17;4.55;;;2.95;;
19436;SDS011;9854;50.968;4.168;2023-02-28T14:16:04;3.22;;;2.72;;
19436;SDS011;9854;50.968;4.168;2023-02-28T14:18:32;3.03;;;2.80;;
19436;SDS011;9854;50.968;4.168;2023-02-28T14:24:24;6.47;;;2.47;;
19436;SDS011;9854;50.968;4.168;2023-02-28T14:27:11;3.22;;;2.95;;
19436;SDS011;9854;50.968;4.168;2023-02-28T14:29:59;3.67;;;2.58;;
19436;SDS011;9854;50.968;4.168;2023-02-28T14:37:51;3.08;;;2.75;;
19436;SDS011;9854;50.968;4.168;2023-02-28T14:40:20;5.90;;;2.70;;
19436;SDS011;9854;50.968;4.168;2023-02-28T14:42:47;5.57;;;3.20;;
19436;SDS011;9854;50.968;4.168;2023-02-28T14:45:20;5.93;;;2.60;;
19436;SDS011;9854;50.968;4.168;2023-02-28T14:47:48;3.15;;;2.63;;
19436;SDS011;9854;50.968;4.168;2023-02-28T14:50:21;3.10;;;2.60;;
19436;SDS011;9854;50.968;4.168;2023-02-28T14:52:53;4.95;;;2.72;;
19436;SDS011;9854;50.968;4.168;2023-02-28T14:55:20;3.67;;;2.50;;
19436;SDS011;9854;50.968;4.168;2023-02-28T14:57:51;9.60;;;2.58;;
19436;SDS011;9854;50.968;4.168;2023-02-28T15:00:24;3.47;;;2.88;;
19436;SDS011;9854;50.968;4.168;2023-02-28T15:02:58;3.75;;;2.90;;
19436;SDS011;9854;50.968;4.168;2023-02-28T15:05:29;3.55;;;2.60;;
19436;SDS011;9854;50.968;4.168;2023-02-28T15:08:09;2.60;;;2.40;;
19436;SDS011;9854;50.968;4.168;2023-02-28T15:10:39;4.55;;;3.13;;
19436;SDS011;9854;50.968;4.168;2023-02-28T15:13:11;5.18;;;2.60;;
19436;SDS011;9854;50.968;4.168;2023-02-28T15:21:17;4.28;;;2.50;;
19436;SDS011;9854;50.968;4.168;2023-02-28T15:23:46;3.13;;;2.63;;
19436;SDS011;9854;50.968;4.168;2023-02-28T15:26:17;3.55;;;2.90;;
19436;SDS011;9854;50.968;4.168;2023-02-28T15:28:45;3.30;;;2.50;;
19436;SDS011;9854;50.968;4.168;2023-02-28T15:31:49;4.20;;;2.95;;
19436;SDS011;9854;50.968;4.168;2023-02-28T15:34:22;4.57;;;3.20;;
19436;SDS011;9854;50.968;4.168;2023-02-28T15:36:54;4.07;;;2.90;;
19436;SDS011;9854;50.968;4.168;2023-02-28T15:39:23;3.55;;;3.10;;
19436;SDS011;9854;50.968;4.168;2023-02-28T15:41:52;3.35;;;2.92;;
19436;SDS011;9854;50.968;4.168;2023-02-28T15:44:34;3.05;;;2.75;;
19436;SDS011;9854;50.968;4.168;2023-02-28T15:47:01;4.95;;;3.05;;
19436;SDS011;9854;50.968;4.168;2023-02-28T15:49:29;3.85;;;3.20;;
19436;SDS011;9854;50.968;4.168;2023-02-28T15:52:04;3.72;;;2.85;;
19436;SDS011;9854;50.968;4.168;2023-02-28T15:54:32;6.75;;;2.85;;
19436;SDS011;9854;50.968;4.168;2023-02-28T15:57:11;5.72;;;3.05;;
19436;SDS011;9854;50.968;4.168;2023-02-28T15:59:42;5.10;;;2.65;;
19436;SDS011;9854;50.968;4.168;2023-02-28T16:02:16;5.63;;;2.97;;
19436;SDS011;9854;50.968;4.168;2023-02-28T16:07:21;2.80;;;2.60;;
19436;SDS011;9854;50.968;4.168;2023-02-28T16:09:47;4.47;;;2.92;;
19436;SDS011;9854;50.968;4.168;2023-02-28T16:12:13;3.88;;;3.15;;
19436;SDS011;9854;50.968;4.168;2023-02-28T16:14:39;5.75;;;2.92;;
19436;SDS011;9854;50.968;4.168;2023-02-28T16:17:15;3.67;;;3.10;;
19436;SDS011;9854;50.968;4.168;2023-02-28T16:19:46;5.77;;;3.13;;
19436;SDS011;9854;50.968;4.168;2023-02-28T16:22:11;7.78;;;3.13;;
19436;SDS011;9854;50.968;4.168;2023-02-28T16:24:37;7.45;;;3.20;;
19436;SDS011;9854;50.968;4.168;2023-02-28T16:27:04;2.85;;;2.63;;
19436;SDS011;9854;50.968;4.168;2023-02-28T16:29:32;7.22;;;3.10;;
19436;SDS011;9854;50.968;4.168;2023-02-28T16:32:04;10.25;;;3.45;;
19436;SDS011;9854;50.968;4.168;2023-02-28T16:34:31;4.68;;;3.67;;
19436;SDS011;9854;50.968;4.168;2023-02-28T16:36:57;5.18;;;3.28;;
19436;SDS011;9854;50.968;4.168;2023-02-28T16:39:23;3.53;;;3.22;;
19436;SDS011;9854;50.968;4.168;2023-02-28T16:41:49;4.90;;;2.97;;
19436;SDS011;9854;50.968;4.168;2023-02-28T16:46:52;4.72;;;3.33;;
19436;SDS011;9854;50.968;4.168;2023-02-28T16:49:18;4.13;;;3.45;;
19436;SDS011;9854;50.968;4.168;2023-02-28T16:51:44;6.22;;;3.55;;
19436;SDS011;9854;50.968;4.168;2023-02-28T16:54:10;5.43;;;3.38;;
19436;SDS011;9854;50.968;4.168;2023-02-28T16:56:35;4.88;;;3.67;;
19436;SDS011;9854;50.968;4.168;2023-02-28T16:59:05;7.25;;;4.00;;
19436;SDS011;9854;50.968;4.168;2023-02-28T17:01:33;9.45;;;4.57;;
19436;SDS011;9854;50.968;4.168;2023-02-28T17:03:59;4.85;;;4.35;;
19436;SDS011;9854;50.968;4.168;2023-02-28T17:06:27;7.05;;;4.10;;
19436;SDS011;9854;50.968;4.168;2023-02-28T17:08:54;6.22;;;3.70;;
19436;SDS011;9854;50.968;4.168;2023-02-28T17:11:21;6.97;;;3.70;;
19436;SDS011;9854;50.968;4.168;2023-02-28T17:13:47;5.50;;;3.90;;
19436;SDS011;9854;50.968;4.168;2023-02-28T17:16:28;7.78;;;3.90;;
19436;SDS011;9854;50.968;4.168;2023-02-28T17:18:57;4.77;;;4.20;;
19436;SDS011;9854;50.968;4.168;2023-02-28T17:21:24;5.17;;;4.33;;
19436;SDS011;9854;50.968;4.168;2023-02-28T17:23:50;8.57;;;4.73;;
19436;SDS011;9854;50.968;4.168;2023-02-28T17:26:17;5.27;;;4.73;;
19436;SDS011;9854;50.968;4.168;2023-02-28T17:28:47;6.40;;;3.97;;
19436;SDS011;9854;50.968;4.168;2023-02-28T17:31:14;7.87;;;4.70;;
19436;SDS011;9854;50.968;4.168;2023-02-28T17:33:40;6.30;;;4.67;;